Time;durP1;ratioP1;P1;durP2;ratioP2;P2;SDS_P1;SDS_P2;PMS_P1;PMS_P2;Temp;Humidity;BMP_temperature;BMP_pressure;BME280_temperature;BME280_humidity;BME280_pressure;Samples;Min_cycle;Max_cycle;Signal;HPM_P1;HPM_P2
2023/04/17 00:02:03;;;;;;;;;2.50;2.00;;;;;22.62;34.58;102438.38;5076552;28;45306;-75
2023/04/17 00:04:29;;;;;;;;;2.00;2.00;;;;;22.61;34.61;102436.72;5076525;28;45431;-74
2023/04/17 00:06:55;;;;;;;;;3.00;2.00;;;;;22.59;34.73;102433.38;5076205;28;46067;-76
2023/04/17 00:09:20;;;;;;;;;2.00;2.00;;;;;22.56;34.42;102431.03;5057818;28;45424;-76
2023/04/17 00:11:45;;;;;;;;;5.25;3.50;;;;;22.45;34.90;102406.34;5075903;28;45292;-75
2023/04/17 00:14:11;;;;;;;;;3.00;3.00;;;;;22.57;34.71;102430.03;5076404;28;45433;-75
2023/04/17 00:16:36;;;;;;;;;2.75;2.75;;;;;22.56;34.97;102429.19;5076117;28;46118;-75
2023/04/17 00:19:01;;;;;;;;;4.00;4.00;;;;;22.40;35.08;102408.59;5075899;28;45504;-72
2023/04/17 00:21:28;;;;;;;;;2.25;2.25;;;;;22.33;34.49;102392.41;5076459;28;45419;-75
2023/04/17 00:23:54;;;;;;;;;5.25;5.25;;;;;22.54;34.68;102427.66;5075769;28;45390;-74
2023/04/17 00:26:19;;;;;;;;;3.75;3.00;;;;;22.52;35.00;102418.06;5075811;28;46540;-76
2023/04/17 00:28:46;;;;;;;;;2.25;2.25;;;;;22.47;34.70;102415.00;5076050;28;45369;-75
2023/04/17 00:31:11;;;;;;;;;5.25;4.00;;;;;22.50;35.09;102422.66;5076215;28;45392;-75
2023/04/17 00:33:37;;;;;;;;;2.25;2.25;;;;;22.49;34.60;102413.03;5075924;28;45560;-75
2023/04/17 00:36:02;;;;;;;;;3.75;3.75;;;;;22.42;34.37;102396.03;5075961;28;47310;-74
2023/04/17 00:38:27;;;;;;;;;3.00;2.75;;;;;22.37;34.36;102395.63;5075351;28;45405;-76
2023/04/17 00:40:54;;;;;;;;;4.50;4.25;;;;;22.33;34.59;102383.66;5076035;28;45276;-73
2023/04/17 00:43:19;;;;;;;;;6.25;2.75;;;;;22.43;34.64;102400.34;5075884;28;45321;-76
2023/04/17 00:45:45;;;;;;;;;3.25;3.25;;;;;22.50;34.19;102406.75;5075780;28;46346;-75
2023/04/17 00:48:12;;;;;;;;;5.00;3.25;;;;;22.43;34.56;102392.38;5075778;28;45547;-76
2023/04/17 00:50:38;;;;;;;;;2.33;2.33;;;;;22.41;34.26;102397.00;5075800;28;45440;-75
2023/04/17 00:53:03;;;;;;;;;3.75;3.75;;;;;22.51;34.63;102410.22;5075569;28;45393;-76
2023/04/17 00:55:31;;;;;;;;;3.50;3.50;;;;;22.49;34.27;102401.56;5075618;28;46831;-75
2023/04/17 00:57:57;;;;;;;;;5.75;3.25;;;;;22.50;34.34;102404.09;5075688;28;45402;-75
2023/04/17 01:00:22;;;;;;;;;5.00;3.25;;;;;22.51;34.24;102402.25;5075756;28;45348;-76
2023/04/17 01:02:47;;;;;;;;;3.75;3.75;;;;;22.51;34.53;102403.09;5057233;28;45452;-75
2023/04/17 01:05:13;;;;;;;;;6.00;4.25;;;;;22.47;34.50;102393.78;5075527;28;46257;-75
2023/04/17 01:07:40;;;;;;;;;3.50;3.00;;;;;22.51;33.94;102397.81;5075257;28;45450;-76
2023/04/17 01:10:06;;;;;;;;;7.00;4.00;;;;;22.52;34.24;102396.00;5075495;28;45319;-75
2023/04/17 01:12:31;;;;;;;;;5.25;4.25;;;;;22.43;34.15;102387.06;5075553;28;45275;-76
2023/04/17 01:14:56;;;;;;;;;7.00;5.50;;;;;22.40;34.68;102380.25;5075377;28;47278;-77
2023/04/17 01:17:24;;;;;;;;;6.00;4.75;;;;;22.52;34.29;102398.63;5075564;28;45398;-77
2023/04/17 01:19:51;;;;;;;;;3.75;3.50;;;;;22.52;34.46;102396.00;5075534;28;45351;-76
2023/04/17 01:22:16;;;;;;;;;6.00;3.50;;;;;22.41;34.57;102383.75;5075156;28;45328;-77
2023/04/17 01:24:42;;;;;;;;;4.00;4.00;;;;;22.45;34.44;102393.09;5075274;28;45355;-77
2023/04/17 01:27:08;;;;;;;;;0.75;0.75;;;;;22.40;34.17;102384.75;5075334;27;45496;-76
2023/04/17 01:29:34;;;;;;;;;6.00;4.25;;;;;22.51;34.32;102399.59;5076305;28;45202;-76
2023/04/17 01:32:00;;;;;;;;;4.75;4.75;;;;;22.47;34.56;102393.78;5078969;28;45356;-76
2023/04/17 01:34:25;;;;;;;;;5.25;3.00;;;;;22.50;33.94;102396.16;5078593;28;46230;-76
2023/04/17 01:36:51;;;;;;;;;2.00;2.00;;;;;22.21;33.88;102351.16;5078361;28;45446;-76
2023/04/17 01:39:16;;;;;;;;;4.00;3.25;;;;;22.50;34.52;102395.31;5078431;28;45329;-73
2023/04/17 01:41:42;;;;;;;;;6.25;4.75;;;;;22.49;34.16;102391.81;5078907;28;45309;-76
2023/04/17 01:44:07;;;;;;;;;4.50;4.50;;;;;22.50;34.42;102390.84;5060290;28;47438;-76
2023/04/17 01:46:33;;;;;;;;;5.00;5.00;;;;;22.06;33.77;102317.19;5078599;28;45475;-76
2023/04/17 01:48:58;;;;;;;;;4.50;4.50;;;;;22.44;33.95;102374.66;5078476;28;45542;-74
2023/04/17 01:51:24;;;;;;;;;4.75;1.50;;;;;22.50;33.91;102382.88;5078286;28;45392;-76
2023/04/17 01:53:49;;;;;;;;;5.50;5.00;;;;;22.42;34.11;102366.84;5078329;28;46614;-76
2023/04/17 01:56:14;;;;;;;;;3.25;3.00;;;;;22.46;33.98;102370.03;5078453;28;45423;-75
2023/04/17 01:58:40;;;;;;;;;5.75;4.00;;;;;22.44;34.03;102372.84;5078628;28;45405;-75
2023/04/17 02:01:05;;;;;;;;;5.75;5.25;;;;;22.30;34.32;102352.97;5078294;28;45445;-76
2023/04/17 02:03:31;;;;;;;;;4.25;3.75;;;;;22.40;34.08;102366.97;5078398;28;45818;-74
2023/04/17 02:05:57;;;;;;;;;6.25;4.25;;;;;22.10;34.32;102323.00;5078035;28;45347;-76
2023/04/17 02:08:23;;;;;;;;;3.00;3.00;;;;;22.49;34.20;102381.19;5078364;28;45427;-75
2023/04/17 02:10:48;;;;;;;;;4.00;3.00;;;;;22.50;34.56;102390.00;5078164;28;45422;-76
2023/04/17 02:13:13;;;;;;;;;3.75;3.75;;;;;22.46;34.28;102375.34;5077947;28;47114;-75
2023/04/17 02:15:39;;;;;;;;;5.00;4.00;;;;;22.34;34.60;102362.28;5077958;28;45348;-76
2023/04/17 02:18:05;;;;;;;;;6.25;5.75;;;;;22.30;34.21;102352.97;5078332;28;45248;-76
2023/04/17 02:20:31;;;;;;;;;4.75;4.00;;;;;22.37;34.24;102356.69;5077858;28;45412;-76
2023/04/17 02:22:59;;;;;;;;;3.75;2.50;;;;;22.37;34.09;102358.50;5077911;28;46057;-75
2023/04/17 02:25:24;;;;;;;;;5.50;4.00;;;;;22.35;34.64;102348.03;5077801;28;45316;-76
2023/04/17 02:27:49;;;;;;;;;4.00;3.00;;;;;22.50;34.54;102374.94;5077695;27;45551;-76
2023/04/17 02:30:15;;;;;;;;;4.00;4.00;;;;;22.50;33.99;102366.97;5077939;28;45344;-77
2023/04/17 02:32:40;;;;;;;;;5.00;4.25;;;;;22.48;34.62;102368.91;5077728;28;46516;-77
2023/04/17 02:35:06;;;;;;;;;4.00;3.50;;;;;22.46;34.29;102368.22;5077608;28;45458;-76
2023/04/17 02:37:31;;;;;;;;;6.00;3.75;;;;;22.50;34.11;102366.97;5078350;27;45554;-76
2023/04/17 02:39:57;;;;;;;;;4.00;4.00;;;;;22.50;34.63;102366.97;5077744;28;45385;-75
2023/04/17 02:42:22;;;;;;;;;3.00;3.00;;;;;22.47;34.31;102366.41;5077736;28;46967;-77
2023/04/17 02:44:47;;;;;;;;;3.25;3.25;;;;;22.50;33.79;102374.94;5077677;28;45305;-75
2023/04/17 02:47:13;;;;;;;;;3.25;3.00;;;;;22.36;34.21;102343.56;5077888;28;45257;-75
2023/04/17 02:49:40;;;;;;;;;5.00;4.25;;;;;22.49;34.46;102370.59;5077163;28;45326;-75
2023/04/17 02:52:05;;;;;;;;;2.00;2.00;;;;;22.49;34.24;102377.72;5077422;28;47405;-75
2023/04/17 02:54:31;;;;;;;;;4.00;3.00;;;;;22.49;34.27;102369.75;5077542;28;45737;-75
2023/04/17 02:56:57;;;;;;;;;3.25;3.25;;;;;22.42;34.30;102368.66;5077625;28;45351;-77
2023/04/17 02:59:24;;;;;;;;;3.00;3.00;;;;;22.05;34.60;102315.50;5077458;28;45532;-76
2023/04/17 03:01:49;;;;;;;;;4.50;3.75;;;;;22.47;33.87;102384.97;5077200;28;46924;-73
2023/04/17 03:04:15;;;;;;;;;5.00;4.75;;;;;22.47;33.90;102388.47;5076877;28;45579;-75
2023/04/17 03:06:40;;;;;;;;;4.75;3.25;;;;;22.44;33.98;102391.41;5059284;28;45591;-77
2023/04/17 03:09:06;;;;;;;;;2.00;2.00;;;;;22.31;33.76;102362.56;5077267;27;45455;-76
2023/04/17 03:11:31;;;;;;;;;4.50;3.50;;;;;22.44;34.19;102386.09;5059087;28;45453;-76
2023/04/17 03:13:56;;;;;;;;;4.25;3.25;;;;;22.37;34.06;102369.09;5077262;28;45353;-76
2023/04/17 03:16:22;;;;;;;;;4.00;4.00;;;;;22.39;34.23;102375.09;5077322;27;45324;-76
2023/04/17 03:18:47;;;;;;;;;3.50;3.50;;;;;22.33;34.25;102367.75;5076923;28;45432;-75
2023/04/17 03:21:13;;;;;;;;;4.00;4.00;;;;;22.30;34.32;102366.22;5077023;27;45284;-76
2023/04/17 03:23:38;;;;;;;;;2.00;2.00;;;;;22.40;33.64;102382.91;5077084;28;45387;-77
2023/04/17 03:26:03;;;;;;;;;4.50;3.00;;;;;22.44;33.53;102388.75;5077008;28;45353;-76
2023/04/17 03:28:29;;;;;;;;;3.50;3.50;;;;;22.35;33.52;102373.72;5077143;28;45403;-77
2023/04/17 03:30:56;;;;;;;;;6.00;5.00;;;;;22.43;34.18;102383.63;5076587;27;46204;-75
2023/04/17 03:33:22;;;;;;;;;4.50;2.00;;;;;22.43;33.91;102386.25;5076534;27;45332;-76
2023/04/17 03:35:47;;;;;;;;;5.00;3.00;;;;;22.42;33.66;102381.94;5076911;27;45371;-75
2023/04/17 03:38:12;;;;;;;;;3.00;3.00;;;;;22.34;33.73;102375.53;5076580;27;45379;-75
2023/04/17 03:40:38;;;;;;;;;3.75;3.00;;;;;22.22;33.61;102358.13;5076866;28;46687;-75
2023/04/17 03:43:03;;;;;;;;;4.50;3.00;;;;;22.34;33.52;102380.00;5076822;28;45410;-76
2023/04/17 03:45:28;;;;;;;;;3.00;3.00;;;;;22.32;34.09;102372.19;5076868;28;45427;-75
2023/04/17 03:47:54;;;;;;;;;3.50;3.50;;;;;22.34;34.38;102375.53;5076363;28;45503;-72
2023/04/17 03:50:19;;;;;;;;;3.50;3.00;;;;;22.38;34.07;102384.88;5076332;28;45804;-74
2023/04/17 03:52:45;;;;;;;;;4.25;3.00;;;;;22.39;33.90;102386.53;5075843;27;45481;-76
2023/04/17 03:55:10;;;;;;;;;5.00;4.00;;;;;22.14;34.22;102348.25;5076725;28;45340;-76
2023/04/17 03:57:36;;;;;;;;;4.25;4.00;;;;;22.35;33.99;102371.88;5076633;28;45447;-76
2023/04/17 04:00:01;;;;;;;;;4.00;3.00;;;;;22.41;33.50;102386.38;5076353;28;47299;-76
2023/04/17 04:02:26;;;;;;;;;5.00;2.00;;;;;22.41;34.19;102389.03;5076020;28;45417;-75
2023/04/17 04:04:52;;;;;;;;;3.75;3.75;;;;;22.24;34.12;102357.00;5076581;28;45298;-75
2023/04/17 04:07:18;;;;;;;;;4.25;3.25;;;;;22.40;34.04;102385.53;5076497;28;45303;-75
2023/04/17 04:09:43;;;;;;;;;2.00;2.00;;;;;22.31;34.09;102372.31;5076075;28;46136;-75
2023/04/17 04:12:09;;;;;;;;;4.50;4.50;;;;;22.27;33.53;102366.50;5058205;28;46394;-75
2023/04/17 04:14:34;;;;;;;;;4.00;2.50;;;;;22.40;33.63;102387.38;5076303;28;45459;-75
2023/04/17 04:16:59;;;;;;;;;3.50;3.00;;;;;22.39;33.92;102386.53;5076036;28;45219;-76
2023/04/17 04:19:25;;;;;;;;;2.25;2.00;;;;;22.39;33.79;102389.19;5076245;28;45380;-75
2023/04/17 04:21:52;;;;;;;;;3.00;2.00;;;;;22.39;33.99;102385.69;5076262;28;45304;-76
2023/04/17 04:24:19;;;;;;;;;3.00;3.00;;;;;22.28;34.15;102374.28;5076364;28;45376;-75
2023/04/17 04:26:46;;;;;;;;;4.00;4.00;;;;;22.38;34.07;102384.03;5075757;28;45590;-75
2023/04/17 04:29:12;;;;;;;;;3.50;3.00;;;;;22.35;33.85;102379.03;5075762;28;47195;-77
2023/04/17 04:31:37;;;;;;;;;3.00;2.25;;;;;22.28;34.20;102362.84;5075691;28;45440;-75
2023/04/17 04:34:04;;;;;;;;;6.00;2.00;;;;;22.37;33.62;102374.41;5076159;28;45772;-75
2023/04/17 04:36:30;;;;;;;;;2.75;2.75;;;;;22.27;33.59;102364.69;5076114;28;45469;-74
2023/04/17 04:38:58;;;;;;;;;2.00;2.00;;;;;22.37;34.10;102377.91;5075686;28;45318;-75
2023/04/17 04:41:24;;;;;;;;;3.00;3.00;;;;;22.35;33.84;102377.19;5075770;28;45395;-75
2023/04/17 04:43:49;;;;;;;;;3.25;2.00;;;;;22.33;33.57;102378.34;5075953;28;45746;-76
2023/04/17 04:46:15;;;;;;;;;5.00;4.00;;;;;22.23;33.84;102357.16;5075491;28;45358;-76
2023/04/17 04:48:40;;;;;;;;;2.00;2.00;;;;;22.20;33.57;102352.97;5075619;28;46102;-76
2023/04/17 04:51:06;;;;;;;;;4.00;2.25;;;;;22.23;33.48;102362.44;5075637;28;45381;-75
2023/04/17 04:53:31;;;;;;;;;2.00;2.00;;;;;22.34;33.70;102383.50;5075912;28;45311;-75
2023/04/17 04:55:57;;;;;;;;;2.25;2.25;;;;;22.31;33.59;102374.97;5075767;28;45298;-75
2023/04/17 04:58:22;;;;;;;;;3.75;3.75;;;;;22.21;34.10;102362.59;5075651;28;45324;-75
2023/04/17 05:00:48;;;;;;;;;4.00;3.00;;;;;22.35;33.75;102390.44;5075356;28;45446;-76
2023/04/17 05:03:13;;;;;;;;;2.50;2.50;;;;;22.34;34.11;102391.44;5075851;28;45440;-75
2023/04/17 05:05:39;;;;;;;;;3.00;3.00;;;;;22.34;34.19;102387.94;5078518;28;45363;-76
2023/04/17 05:08:05;;;;;;;;;4.00;2.00;;;;;22.34;33.92;102394.09;5060768;28;47239;-75
2023/04/17 05:10:30;;;;;;;;;5.00;3.25;;;;;22.34;33.50;102398.56;5079114;28;45316;-75
2023/04/17 05:12:56;;;;;;;;;2.50;2.50;;;;;22.34;34.09;102404.72;5079015;28;45533;-73
2023/04/17 05:15:21;;;;;;;;;4.00;3.00;;;;;22.35;33.43;102402.91;5078797;28;45342;-75
2023/04/17 05:17:46;;;;;;;;;3.00;3.00;;;;;22.21;33.84;102385.63;5079032;28;45324;-75
2023/04/17 05:20:12;;;;;;;;;2.00;2.00;;;;;22.33;33.38;102405.69;5077620;28;46025;-76
2023/04/17 05:22:37;;;;;;;;;3.25;3.25;;;;;22.32;33.89;102395.22;5079146;28;45621;-76
2023/04/17 05:25:03;;;;;;;;;2.00;2.00;;;;;22.27;33.52;102391.19;5077567;28;45399;-75
2023/04/17 05:27:29;;;;;;;;;2.25;2.25;;;;;21.99;33.88;102354.00;5078565;28;46693;-76
2023/04/17 05:29:55;;;;;;;;;3.25;2.25;;;;;22.19;34.02;102388.44;5078417;28;45394;-75
2023/04/17 05:32:20;;;;;;;;;3.00;3.00;;;;;22.35;33.70;102413.50;5078594;28;45404;-76
2023/04/17 05:34:45;;;;;;;;;2.00;2.00;;;;;22.28;33.50;102403.47;5078944;28;45476;-75
2023/04/17 05:37:11;;;;;;;;;2.00;2.00;;;;;22.21;33.75;102394.41;5078657;28;46362;-75
2023/04/17 05:39:37;;;;;;;;;3.75;2.50;;;;;22.26;33.23;102401.94;5078491;28;45514;-75
2023/04/17 05:42:03;;;;;;;;;2.25;2.25;;;;;22.29;33.52;102413.09;5078910;28;45364;-75
2023/04/17 05:44:28;;;;;;;;;2.00;2.00;;;;;22.33;33.95;102423.44;5078497;28;45390;-75
2023/04/17 05:46:56;;;;;;;;;3.25;2.25;;;;;22.26;33.75;102417.84;5078292;28;46155;-75
2023/04/17 05:49:21;;;;;;;;;2.00;2.00;;;;;22.34;33.54;102430.38;5078330;28;45319;-75
2023/04/17 05:51:47;;;;;;;;;3.75;3.00;;;;;22.16;33.72;102402.81;5078564;28;45232;-75
2023/04/17 05:54:12;;;;;;;;;3.00;3.00;;;;;22.34;33.49;102433.03;5078690;28;45440;-75
2023/04/17 05:56:38;;;;;;;;;4.75;3.00;;;;;22.27;33.86;102424.81;5078409;28;46113;-75
2023/04/17 05:59:03;;;;;;;;;4.50;3.25;;;;;22.23;33.57;102420.78;5077951;28;45372;-75
2023/04/17 06:01:29;;;;;;;;;2.75;2.75;;;;;22.06;33.39;102394.03;5078516;28;45434;-73
2023/04/17 06:03:54;;;;;;;;;2.00;2.00;;;;;22.32;33.86;102433.19;5078524;28;45385;-74
2023/04/17 06:06:19;;;;;;;;;3.00;3.00;;;;;22.31;33.40;102442.09;5078162;28;45404;-75
2023/04/17 06:08:45;;;;;;;;;5.75;4.00;;;;;22.24;33.68;102433.91;5078112;28;45438;-73
2023/04/17 06:11:10;;;;;;;;;4.50;3.00;;;;;22.26;33.98;102437.25;5078241;28;45701;-73
2023/04/17 06:13:36;;;;;;;;;4.00;2.25;;;;;22.32;33.86;102453.56;5077808;28;45466;-76
2023/04/17 06:16:01;;;;;;;;;4.50;2.75;;;;;22.30;33.95;102451.06;5077530;28;46095;-73
2023/04/17 06:18:26;;;;;;;;;2.00;2.00;;;;;22.20;33.57;102435.16;5077964;28;45409;-74
2023/04/17 06:20:52;;;;;;;;;2.00;2.00;;;;;22.31;33.42;102454.53;5078251;28;45363;-75
2023/04/17 06:23:17;;;;;;;;;2.00;2.00;;;;;22.31;34.18;102465.97;5078160;28;45397;-76
2023/04/17 06:25:42;;;;;;;;;3.50;3.00;;;;;22.24;33.93;102452.47;5077812;28;47087;-72
2023/04/17 06:28:08;;;;;;;;;2.00;2.00;;;;;22.17;33.58;102441.56;5077463;28;45287;-76
2023/04/17 06:30:33;;;;;;;;;2.75;2.75;;;;;22.31;33.81;102465.13;5077779;28;45269;-75
2023/04/17 06:32:59;;;;;;;;;5.50;3.25;;;;;22.30;33.64;102466.97;5078008;28;45281;-75
2023/04/17 06:35:24;;;;;;;;;2.00;2.00;;;;;22.26;34.03;102455.81;5077730;28;46401;-75
2023/04/17 06:37:49;;;;;;;;;2.00;2.00;;;;;22.20;33.97;102450.25;5077470;27;45227;-75
2023/04/17 06:40:15;;;;;;;;;2.00;2.00;;;;;22.31;33.91;102463.31;5077844;28;45377;-74
2023/04/17 06:42:40;;;;;;;;;2.00;2.00;;;;;22.25;33.13;102464.72;5077506;28;45365;-76
2023/04/17 06:45:06;;;;;;;;;4.00;2.50;;;;;22.27;33.23;102470.75;5077512;28;47111;-76
2023/04/17 06:47:31;;;;;;;;;2.00;1.75;;;;;22.30;33.36;102477.56;5077683;28;45411;-76
2023/04/17 06:49:58;;;;;;;;;3.00;3.00;;;;;22.20;33.42;102460.84;5077488;28;45390;-75
2023/04/17 06:52:26;;;;;;;;;1.75;1.75;;;;;22.31;33.30;102481.88;5077700;28;45390;-75
2023/04/17 06:54:53;;;;;;;;;3.50;2.50;;;;;22.26;33.39;102477.00;5077270;28;46355;-75
2023/04/17 06:57:19;;;;;;;;;3.00;2.00;;;;;22.28;33.75;102479.50;5076829;28;45238;-76
2023/04/17 06:59:44;;;;;;;;;4.00;4.00;;;;;22.24;33.40;102476.31;5077626;28;45266;-75
2023/04/17 07:02:10;;;;;;;;;3.50;3.50;;;;;22.32;33.37;102491.53;5077468;28;45506;-76
2023/04/17 07:04:35;;;;;;;;;3.00;3.00;;;;;22.32;33.71;102491.53;5077248;28;45997;-75
2023/04/17 07:07:00;;;;;;;;;4.25;3.75;;;;;22.30;33.23;102485.53;5077393;28;45526;-75
2023/04/17 07:09:26;;;;;;;;;3.25;3.25;;;;;22.29;33.38;102484.69;5077314;28;45391;-75
2023/04/17 07:11:51;;;;;;;;;3.75;2.75;;;;;22.24;33.40;102478.97;5077052;28;45550;-75
2023/04/17 07:14:17;;;;;;;;;4.00;3.50;;;;;22.26;33.53;102487.63;5077113;28;46209;-76
2023/04/17 07:16:42;;;;;;;;;2.00;2.00;;;;;21.88;33.90;102429.22;5077146;28;45439;-75
2023/04/17 07:19:07;;;;;;;;;3.00;3.00;;;;;22.32;33.45;102491.53;5077365;28;45317;-76
2023/04/17 07:21:33;;;;;;;;;4.00;4.00;;;;;22.32;33.44;102490.69;5077100;28;45413;-75
2023/04/17 07:23:58;;;;;;;;;2.50;2.50;;;;;22.23;33.43;102473.78;5076932;28;47748;-77
2023/04/17 07:26:24;;;;;;;;;2.50;2.50;;;;;22.22;33.46;102477.44;5075976;28;45364;-75
2023/04/17 07:28:50;;;;;;;;;2.50;2.50;;;;;22.33;33.85;102497.66;5076507;28;45348;-74
2023/04/17 07:31:15;;;;;;;;;3.00;1.25;;;;;22.27;33.53;102486.66;5077008;28;45339;-75
2023/04/17 07:33:40;;;;;;;;;2.75;2.75;;;;;22.32;33.36;102496.81;5076666;28;46958;-75
2023/04/17 07:36:08;;;;;;;;;3.25;2.00;;;;;22.16;33.60;102462.94;5076869;28;45366;-75
2023/04/17 07:38:34;;;;;;;;;4.50;3.00;;;;;22.24;33.66;102478.13;5076547;28;45301;-75
2023/04/17 07:40:59;;;;;;;;;3.00;3.00;;;;;22.18;33.22;102469.78;5076465;28;45374;-75
2023/04/17 07:43:25;;;;;;;;;3.00;3.00;;;;;22.32;33.49;102488.03;5076534;28;46189;-75
2023/04/17 07:45:51;;;;;;;;;2.50;2.50;;;;;22.31;33.18;102486.34;5058575;28;46170;-75
2023/04/17 07:48:17;;;;;;;;;2.75;2.75;;;;;22.10;33.44;102447.59;5076644;28;45346;-75
2023/04/17 07:50:43;;;;;;;;;3.00;3.00;;;;;22.25;33.37;102485.94;5058361;28;45430;-74
2023/04/17 07:53:08;;;;;;;;;3.75;3.75;;;;;22.29;33.89;102490.00;5076396;28;45997;-75
2023/04/17 07:55:33;;;;;;;;;3.25;3.25;;;;;22.31;33.35;102497.78;5076225;28;45525;-74
2023/04/17 07:58:02;;;;;;;;;2.00;2.00;;;;;22.17;33.89;102469.91;5076581;28;45362;-74
2023/04/17 08:00:28;;;;;;;;;3.50;3.50;;;;;22.23;33.43;102471.16;5076564;28;45403;-75
2023/04/17 08:02:54;;;;;;;;;2.50;2.25;;;;;22.31;33.34;102495.16;5076198;28;47083;-75
2023/04/17 08:05:19;;;;;;;;;4.50;3.50;;;;;22.31;33.80;102489.84;5076197;28;45364;-75
2023/04/17 08:07:45;;;;;;;;;4.00;3.00;;;;;22.32;33.57;102502.13;5076493;28;45309;-75
2023/04/17 08:10:10;;;;;;;;;3.00;3.00;;;;;22.32;33.20;102496.81;5075959;28;45387;-74
2023/04/17 08:12:36;;;;;;;;;4.25;3.00;;;;;22.33;33.85;102495.84;5076140;28;45462;-74
2023/04/17 08:15:02;;;;;;;;;5.25;2.00;;;;;22.33;33.60;102503.78;5076194;28;45375;-74
2023/04/17 08:17:28;;;;;;;;;2.00;2.00;;;;;22.22;33.77;102490.69;5076227;28;45379;-79
2023/04/17 08:19:58;;;;;;;;;2.25;2.25;;;;;22.35;33.18;102498.34;5076084;28;45394;-79
2023/04/17 08:22:24;;;;;;;;;2.50;2.50;;;;;22.24;33.23;102484.28;5075811;28;47224;-75
2023/04/17 08:24:56;;;;;;;;;3.50;3.00;;;;;22.39;33.71;102500.56;5075854;28;45569;-80
2023/04/17 08:27:23;;;;;;;;;2.75;2.25;;;;;22.35;33.92;102477.16;5075971;28;45347;-78
2023/04/17 08:29:48;;;;;;;;;4.50;3.00;;;;;22.34;33.86;102478.94;5076104;28;45513;-79
2023/04/17 08:32:13;;;;;;;;;3.00;3.00;;;;;22.48;34.15;102492.75;5075724;28;47179;-79
2023/04/17 08:34:38;;;;;;;;;4.25;2.75;;;;;22.22;33.80;102438.53;5075975;28;45386;-79
2023/04/17 08:37:04;;;;;;;;;4.75;3.00;;;;;22.40;33.91;102462.44;5075289;28;49184;-77
2023/04/17 08:39:30;;;;;;;;;4.25;2.50;;;;;22.61;33.63;102484.47;5075651;28;45381;-76
2023/04/17 08:42:02;;;;;;;;;2.50;2.50;;;;;22.62;34.11;102488.78;5075923;28;46097;-79
2023/04/17 08:44:28;;;;;;;;;2.00;2.00;;;;;22.65;34.15;102490.31;5076134;28;45214;-78
2023/04/17 08:46:59;;;;;;;;;3.00;1.25;;;;;22.59;33.49;102481.97;5075945;28;45270;-77
2023/04/17 08:49:29;;;;;;;;;5.00;4.00;;;;;22.65;33.67;102485.00;5075729;28;45414;-78
2023/04/17 08:51:54;;;;;;;;;1.75;1.75;;;;;22.69;34.00;102489.06;5075133;28;45336;-78
2023/04/17 08:54:20;;;;;;;;;3.00;3.00;;;;;22.68;33.81;102482.06;5075580;28;45366;-81
2023/04/17 08:56:47;;;;;;;;;2.25;2.25;;;;;22.67;33.99;102483.88;5075700;28;45260;-79
2023/04/17 08:59:13;;;;;;;;;3.50;3.00;;;;;22.71;33.83;102490.63;5075639;28;45296;-79
2023/04/17 09:01:38;;;;;;;;;3.00;1.75;;;;;22.72;33.70;102486.97;5075354;28;46409;-77
2023/04/17 09:04:03;;;;;;;;;3.00;3.00;;;;;22.73;33.63;102493.13;5075686;28;45422;-79
2023/04/17 09:06:47;;;;;;;;;2.00;2.00;;;;;22.68;33.45;102484.72;5075594;28;45279;-75
2023/04/17 09:09:13;;;;;;;;;2.50;2.50;;;;;22.69;33.75;102483.75;5075636;28;45440;-75
2023/04/17 09:11:38;;;;;;;;;4.25;4.25;;;;;22.74;33.47;102495.63;5075298;28;45344;-75
2023/04/17 09:14:03;;;;;;;;;7.00;4.00;;;;;22.77;33.53;102493.69;5075236;28;53896;-75
2023/04/17 09:16:29;;;;;;;;;3.25;3.25;;;;;22.79;34.13;102499.69;5075576;28;45319;-74
2023/04/17 09:19:05;;;;;;;;;4.25;4.00;;;;;22.81;34.33;102493.25;5074591;28;45680;-74
2023/04/17 09:21:31;;;;;;;;;8.00;7.00;;;;;22.80;33.64;102494.22;5074955;28;45412;-72
2023/04/17 09:23:58;;;;;;;;;13.00;9.50;;;;;22.62;32.92;102479.03;5075392;28;45297;-74
2023/04/17 09:26:30;;;;;;;;;16.50;13.50;;;;;22.60;32.31;102488.09;5075335;28;45226;-74
2023/04/17 09:29:03;;;;;;;;;11.25;11.25;;;;;22.48;32.73;102490.09;5075372;28;45428;-73
2023/04/17 09:31:30;;;;;;;;;14.75;14.25;;;;;22.31;32.55;102479.22;5075030;28;45468;-75
2023/04/17 09:33:58;;;;;;;;;13.25;10.00;;;;;22.25;32.55;102483.28;5075157;28;45396;-81
2023/04/17 09:36:26;;;;;;;;;11.75;9.00;;;;;22.13;32.85;102466.72;5074756;28;45357;-75
2023/04/17 09:38:52;;;;;;;;;13.00;12.00;;;;;22.12;33.05;102458.91;5074682;28;45394;-83
2023/04/17 09:41:29;;;;;;;;;11.75;10.75;;;;;22.13;32.91;102465.88;5074981;28;46358;-73
2023/04/17 09:43:56;;;;;;;;;10.25;8.00;;;;;22.21;33.25;102473.94;5074693;28;45374;-74
2023/04/17 09:46:31;;;;;;;;;9.75;9.00;;;;;22.23;33.12;102463.19;5074451;28;45333;-75
2023/04/17 09:49:01;;;;;;;;;12.25;8.75;;;;;22.33;32.95;102477.28;5074786;28;45519;-73
2023/04/17 09:51:26;;;;;;;;;10.75;8.50;;;;;22.37;33.62;102461.94;5076831;28;45980;-75
2023/04/17 09:53:53;;;;;;;;;6.50;6.00;;;;;22.39;33.03;102466.09;5078396;28;45517;-75
2023/04/17 09:56:20;;;;;;;;;9.00;7.00;;;;;22.43;33.73;102465.81;5078633;28;45460;-75
2023/04/17 09:58:47;;;;;;;;;8.00;5.00;;;;;22.45;33.36;102471.81;5078187;28;45325;-75
2023/04/17 10:01:13;;;;;;;;;8.25;5.75;;;;;22.36;33.59;102457.59;5078261;28;45439;-75
2023/04/17 10:03:40;;;;;;;;;9.25;7.50;;;;;22.44;33.15;102456.88;5078104;28;45604;-75
2023/04/17 10:06:06;;;;;;;;;9.50;6.50;;;;;22.38;33.76;102450.31;5078043;28;45324;-74
2023/04/17 10:08:32;;;;;;;;;6.00;6.00;;;;;22.42;33.37;102450.88;5078224;28;45606;-75
2023/04/17 10:11:06;;;;;;;;;10.00;7.25;;;;;22.54;33.52;102470.09;5078075;28;46096;-74
2023/04/17 10:13:37;;;;;;;;;6.75;4.00;;;;;22.56;33.63;102465.50;5078080;28;45357;-75
2023/04/17 10:16:04;;;;;;;;;4.25;4.25;;;;;22.56;33.60;102466.31;5078169;28;45321;-75
2023/04/17 10:18:29;;;;;;;;;7.25;6.00;;;;;22.57;34.05;102459.22;5077723;28;45449;-75
2023/04/17 10:20:54;;;;;;;;;5.00;5.00;;;;;22.57;33.60;102444.13;5077897;28;46100;-75
2023/04/17 10:23:33;;;;;;;;;6.00;5.00;;;;;22.54;33.83;102433.81;5078101;28;45312;-75
2023/04/17 10:26:23;;;;;;;;;6.75;6.75;;;;;22.59;33.73;102436.84;5078026;28;45452;-75
2023/04/17 10:28:53;;;;;;;;;4.75;4.50;;;;;22.60;34.00;102435.06;5077762;28;45610;-75
2023/04/17 10:31:20;;;;;;;;;4.50;4.50;;;;;22.60;33.66;102437.69;5077649;28;46338;-74
2023/04/17 10:33:53;;;;;;;;;6.00;5.00;;;;;22.62;33.74;102435.72;5077354;28;45419;-75
2023/04/17 10:36:36;;;;;;;;;5.00;5.00;;;;;22.61;34.14;102421.63;5077902;28;45428;-75
2023/04/17 10:39:17;;;;;;;;;5.00;5.00;;;;;22.62;33.61;102423.31;5077507;27;45691;-74
2023/04/17 10:42:02;;;;;;;;;6.00;6.00;;;;;22.62;34.16;102423.31;5077443;28;47259;-75
2023/04/17 10:44:34;;;;;;;;;4.50;4.50;;;;;22.59;34.19;102412.16;5077585;28;45348;-74
2023/04/17 10:47:07;;;;;;;;;3.75;3.75;;;;;22.51;34.22;102396.97;5077524;28;45576;-75
2023/04/17 10:49:57;;;;;;;;;7.75;5.00;;;;;22.63;34.07;102422.34;5077096;28;45283;-74
2023/04/17 10:52:31;;;;;;;;;4.00;4.00;;;;;22.63;33.83;102416.19;5077277;28;47528;-75
2023/04/17 10:55:15;;;;;;;;;7.25;4.50;;;;;22.63;33.83;102416.19;5077213;28;45477;-75
2023/04/17 10:57:54;;;;;;;;;6.00;4.50;;;;;22.62;34.36;102415.34;5077800;28;45372;-75
2023/04/17 11:00:26;;;;;;;;;5.75;5.00;;;;;22.63;33.81;102417.03;5077261;28;45582;-75
2023/04/17 11:02:52;;;;;;;;;5.00;5.00;;;;;22.47;34.44;102390.28;5076598;28;46183;-75
2023/04/17 11:05:19;;;;;;;;;4.00;4.00;;;;;22.66;34.10;102418.56;5077362;28;45404;-74
2023/04/17 11:07:50;;;;;;;;;6.25;4.00;;;;;22.66;34.52;102423.88;5077332;28;45471;-75
2023/04/17 11:10:19;;;;;;;;;3.25;3.25;;;;;22.57;34.19;102409.66;5077208;28;45642;-75
2023/04/17 11:12:46;;;;;;;;;5.00;5.00;;;;;22.63;34.16;102425.00;5076958;28;46571;-75
2023/04/17 11:15:11;;;;;;;;;4.00;4.00;;;;;22.67;34.49;102422.03;5077133;28;45427;-75
2023/04/17 11:17:45;;;;;;;;;4.75;4.75;;;;;22.34;34.15;102364.94;5076847;28;45404;-74
2023/04/17 11:20:11;;;;;;;;;5.00;4.00;;;;;22.67;34.37;102411.41;5077187;28;45388;-74
2023/04/17 11:22:36;;;;;;;;;4.00;4.00;;;;;22.67;34.39;102416.72;5077013;28;45309;-75